読者です 読者をやめる 読者になる 読者になる

ドラクエ徹底攻略情報wiki

個人的なドラクエ攻略ブログ

今朝の羽田(2017/05/12)

QFA25/VH-OEE(B744)

JAL36/JA703J(B772)

ANA8554/JA809A(B788)

ANA880/JA837A(B789)

HKE624/B-LEA(A321)

APJ898/JA815P(A320)

JAL34/JA701J(B772)

ANA844/JA886A(B789)

*TTW217/B-50016(A320)

ANA850/JA883A(B789)

SIA636/9V-SWA(B77W)

ANA968/JA829A(B788)

ANA204/JA786A(B77W)

*SNJ9051/JA803X(B738)

ANA856/JA890A(B789)

*AAR177/HL8038(A321)

JAL70/JA828J(B788)

*HKE625/B-LEA(A321)

BAW7/G-STBB(B77W)

*APJ859/JA815P(A320)

RJTT 112000Z 01008KT 5000 BR FEW005 SCT/// 18/18 Q1012 TEMPO 4000 BR FEW005 BKN007 RMK 1ST005 A2989

RJTT 112100Z 03009KT 4500 BR FEW005 BKN/// 18/18 Q1012 TEMPO FEW005 BKN007

RJTT 112200Z 04007KT 6000 FEW004 BKN006 BKN/// 19/18 Q1013 BECMG TL2300 SCT007

今朝の羽田は雲が出ています。